Loma, Colorado
Current Conditions -  °F | °C
As of 6:53 PM on Wednesday 26 Nov 2014 (Local Time) from KGJT Reporting Station
Clear Clear  
Wind Chill: 32°   Ceiling: Unl
Heat Index: 32°   Visibility: 10mi
Dew Point: 23°   Wind: 3mph
Humidity: 69%   Direction: 90°E
Pressure: 30.39"   Gusts: NA
Location:  39.2°N, 108.82°W
Report Text: KGJT 270153Z 09003KT 10SM CLR 00/M05 A3039 RMK AO2 SLP319 T00001050
Loading
Personal Weather Stations






























Interactive Weather Map New forecast layout! Learn more

10-Day Weather Forecast

Advertisements
Track Severe Weather on mobile